Flight Track Log - Related Links

Times and Time Zones

All times are in EDT time to prevent confusion due to time zone crossing. See the XOJ549 flight status page for this flight to view local times or setup timezone preferences in your user account.

Time Position Orientation Groundspeed Altitude Reporting Facility
EDT Latitude Longitude Course Direction KTS MPH feet Rate Location/Type
Sun 07:09:23 PM 30.1300 -97.6506 327° Northwest 182 209 4,000  Level Houston Center
Sun 07:10:25 PM 30.1139 -97.7061 251° West 229 264 7,900 3,756 Climbing Houston Center
Sun 07:11:26 PM 30.1406 -97.7767 294° West 239 275 11,700 2,488 Climbing Houston Center
Sun 07:12:28 PM 30.2058 -97.8369 321° Northwest 325 374 13,000 2,274 Climbing Houston Center
Sun 07:13:30 PM 30.2956 -97.8644 345° North 330 380 16,400 2,806 Climbing Houston Center
Sun 07:14:00 PM 30.7875 -97.8364 327° Northwest  Level FlightAware Approximate
Sun 07:14:32 PM 30.3858 -97.8914 346° North 330 380 18,800  Level Houston Center
Sun 07:15:33 PM 30.4856 -97.9239 344° North 359 413 21,000 2,390 Climbing Houston Center
Sun 07:16:35 PM 30.5889 -97.9050 North 386 444 23,700 2,855 Climbing Houston Center
Sun 07:17:37 PM 30.6756 -97.7969 47° Northeast 386 444 26,900 2,661 Climbing Houston Center
Sun 07:18:39 PM 30.7519 -97.7028 47° Northeast 393 452 29,200 2,226 Climbing Houston Center
Sun 07:19:41 PM 30.8289 -97.6075 47° Northeast 398 458 31,500 1,548 Climbing Houston Center
Sun 07:20:43 PM 30.9111 -97.5053 47° Northeast 420 483 32,400 1,122 Climbing Houston Center
Sun 07:21:44 PM 31.0033 -97.3933 46° Northeast 462 532 33,800 1,415 Climbing Houston Center
Sun 07:22:46 PM 31.0981 -97.2725 48° Northeast 484 557 35,300 1,500 Climbing Houston Center
Sun 07:23:48 PM 31.1897 -97.1556 47° Northeast 481 554 36,900 1,548 Climbing Houston Center
Sun 07:24:50 PM 31.2797 -97.0400 48° Northeast 477 549 38,500 1,645 Climbing Houston Center
Sun 07:25:52 PM 31.3678 -96.9289 47° Northeast 466 536 40,300 1,210 Climbing Houston Center
Sun 07:26:54 PM 31.4519 -96.8189 48° Northeast 453 521 41,000 339 Climbing Houston Center
Sun 07:27:56 PM 31.5211 -96.6883 58° Northeast 467 537 41,000  Level Houston Center
Sun 07:28:58 PM 31.5917 -96.5542 58° Northeast 480 552 41,000  Level Houston Center
Sun 07:29:59 PM 31.6719 -96.4019 58° Northeast 470 541 41,000  Level Houston Center
Sun 07:31:01 PM 31.7403 -96.2717 58° Northeast 468 539 41,000  Level Houston Center
Sun 07:32:03 PM 31.8097 -96.1397 58° Northeast 472 543 41,000  Level Houston Center
Sun 07:33:05 PM 31.8836 -95.9994 58° Northeast 472 543 41,000  Level Houston Center
Sun 07:34:06 PM 31.9492 -95.8733 58° Northeast 463 533 41,000  Level Fort Worth Center
Sun 07:35:06 PM 32.0144 -95.7375 60° Northeast 463 533 41,000  Level Fort Worth Center
Sun 07:36:06 PM 32.0856 -95.6064 57° Northeast 468 539 41,000  Level Fort Worth Center
Sun 07:37:06 PM 32.1525 -95.4747 59° Northeast 468 539 41,000  Level Fort Worth Center
Sun 07:38:06 PM 32.2192 -95.3383 60° Northeast 473 544 41,000  Level Fort Worth Center
Sun 07:39:06 PM 32.2881 -95.2017 59° Northeast 478 550 41,000  Level Fort Worth Center
Sun 07:40:06 PM 32.3544 -95.0697 59° Northeast 478 550 41,000  Level Fort Worth Center
Sun 07:41:06 PM 32.4206 -94.9303 61° Northeast 478 550 41,000  Level Fort Worth Center
Sun 07:42:06 PM 32.4911 -94.7978 58° Northeast 473 544 41,000  Level Fort Worth Center
Sun 07:43:06 PM 32.5592 -94.6603 60° Northeast 478 550 41,000  Level Fort Worth Center
Sun 07:44:06 PM 32.6250 -94.5250 60° Northeast 478 550 41,000  Level Fort Worth Center
Sun 07:45:06 PM 32.6947 -94.3894 59° Northeast 478 550 41,000  Level Fort Worth Center
Sun 07:46:06 PM 32.7603 -94.2539 60° Northeast 478 550 41,000  Level Fort Worth Center
Sun 07:47:06 PM 32.8300 -94.1156 59° Northeast 478 550 41,000  Level Fort Worth Center
Sun 07:48:06 PM 32.8953 -93.9819 60° Northeast 478 550 41,000  Level Fort Worth Center
Sun 07:49:06 PM 32.9625 -93.8481 59° Northeast 478 550 41,000  Level Fort Worth Center
Sun 07:50:06 PM 33.0294 -93.7117 60° Northeast 478 550 41,000  Level Fort Worth Center
Sun 07:51:06 PM 33.0942 -93.5750 60° Northeast 478 550 41,000  Level Fort Worth Center
Sun 07:52:06 PM 33.1611 -93.4408 59° Northeast 478 550 41,000  Level Fort Worth Center
Sun 07:53:06 PM 33.2256 -93.3039 61° Northeast 478 550 41,000 250 Level Fort Worth Center
Sun 07:54:06 PM 33.2919 -93.1689 60° Northeast 478 550 41,500 650 Climbing Fort Worth Center
Sun 07:55:06 PM 33.3583 -93.0364 59° Northeast 478 550 42,300 689 Climbing Fort Worth Center
Sun 07:56:08 PM 33.4183 -92.9108 60° Northeast 473 544 42,900 541 Climbing Memphis Center
Sun 07:57:08 PM 33.4814 -92.7781 60° Northeast 478 550 43,400 500 Climbing Memphis Center
Sun 07:58:08 PM 33.5444 -92.6453 60° Northeast 472 543 43,900 500 Climbing Memphis Center
Sun 07:59:08 PM 33.6094 -92.5122 60° Northeast 467 537 44,400 500 Climbing Memphis Center
Sun 08:00:08 PM 33.6744 -92.3792 60° Northeast 461 531 44,900 300 Climbing Memphis Center
Sun 08:01:08 PM 33.7369 -92.2456 61° Northeast 455 524 45,000 50 Climbing Memphis Center
Sun 08:02:08 PM 33.8014 -92.1119 60° Northeast 455 524 45,000  Level Memphis Center
Sun 08:03:08 PM 33.8639 -91.9758 61° Northeast 455 524 45,000  Level Memphis Center
Sun 08:04:08 PM 33.9261 -91.8367 62° Northeast 455 524 45,000  Level Memphis Center
Sun 08:05:08 PM 33.9861 -91.7050 61° Northeast 455 524 45,000  Level Memphis Center
Sun 08:06:07 PM 34.0458 -91.5681 62° Northeast 449 517 45,000  Level Memphis Center
Sun 08:07:07 PM 34.1097 -91.4308 61° Northeast 455 524 45,000  Level Memphis Center
Sun 08:08:08 PM 34.1733 -91.2961 60° Northeast 455 524 45,000  Level Memphis Center
Sun 08:09:08 PM 34.2350 -91.1586 61° Northeast 455 524 45,000  Level Memphis Center
Sun 08:10:08 PM 34.3025 -91.0058 62° Northeast 455 524 45,000  Level Memphis Center
Sun 08:11:08 PM 34.3636 -90.8706 61° Northeast 455 524 45,000  Level Memphis Center
Sun 08:12:08 PM 34.4247 -90.7347 61° Northeast 455 524 45,000  Level Memphis Center
Sun 08:13:08 PM 34.4875 -90.5989 61° Northeast 455 524 45,000  Level Memphis Center
Sun 08:14:08 PM 34.5461 -90.4631 62° Northeast 455 524 45,000  Level Memphis Center
Sun 08:15:08 PM 34.6067 -90.3319 61° Northeast 455 524 45,000  Level Memphis Center
Sun 08:16:08 PM 34.6650 -90.1981 62° Northeast 455 524 45,000  Level Memphis Center
Sun 08:17:08 PM 34.7253 -90.0614 62° Northeast 455 524 45,000  Level Memphis Center
Sun 08:18:08 PM 34.7750 -89.9500 61° Northeast 437 503 45,000  Level Memphis Center
Sun 08:19:08 PM 34.8411 -89.7878 64° Northeast 444 511 45,000  Level Memphis Center
Sun 08:20:08 PM 34.8989 -89.6506 63° Northeast 451 519 45,000  Level Memphis Center
Sun 08:21:08 PM 34.9647 -89.5083 61° Northeast 490 564 45,000  Level Memphis Center
Sun 08:22:08 PM 35.0242 -89.3731 62° Northeast 461 531 45,000  Level Memphis Center
Sun 08:23:08 PM 35.0814 -89.2381 63° Northeast 443 510 45,000  Level Memphis Center
Sun 08:24:08 PM 35.1386 -89.1028 63° Northeast 443 510 45,000  Level Memphis Center
Sun 08:25:08 PM 35.1978 -88.9644 62° Northeast 453 521 45,000  Level Memphis Center
Sun 08:26:08 PM 35.2586 -88.8261 62° Northeast 453 521 45,000  Level Memphis Center
Sun 08:27:07 PM 35.3092 -88.7031 63° Northeast 453 521 45,000  Level Memphis Center
Sun 08:28:08 PM 35.3678 -88.5669 62° Northeast 453 521 45,000  Level Memphis Center
Sun 08:29:08 PM 35.4281 -88.4131 64° Northeast 453 521 45,000  Level Memphis Center
Sun 08:30:08 PM 35.4883 -88.2764 62° Northeast 453 521 45,000  Level Memphis Center
Sun 08:31:07 PM 35.5344 -88.1656 63° Northeast 453 521 45,000  Level Memphis Center
Sun 08:32:08 PM 35.6025 -88.0053 62° Northeast 448 516 45,000  Level Memphis Center
Sun 08:33:08 PM 35.6581 -87.8683 63° Northeast 448 516 45,000  Level Memphis Center
Sun 08:34:07 PM 35.7178 -87.7286 62° Northeast 453 521 45,000  Level Memphis Center
Sun 08:35:08 PM 35.7711 -87.5911 64° Northeast 453 521 45,000  Level Memphis Center
Sun 08:36:07 PM 35.8283 -87.4511 63° Northeast 453 521 45,000  Level Memphis Center
Sun 08:37:07 PM 35.8836 -87.3158 63° Northeast 448 516 45,000  Level Memphis Center
Sun 08:38:07 PM 35.9383 -87.1778 64° Northeast 448 516 45,000  Level Memphis Center
Sun 08:39:07 PM 35.9933 -87.0397 64° Northeast 448 516 45,000  Level Memphis Center
Sun 08:40:07 PM 36.0456 -86.8992 65° Northeast 448 516 45,000  Level Memphis Center
Sun 08:41:08 PM 36.1022 -86.7581 64° Northeast 453 521 45,000  Level Memphis Center
Sun 08:42:08 PM 36.1542 -86.6117 66° East 453 521 45,000  Level Memphis Center
Sun 08:43:08 PM 36.2039 -86.4681 67° East 448 516 45,000  Level Memphis Center
Sun 08:44:08 PM 36.2533 -86.3214 67° East 448 516 45,000  Level Memphis Center
Sun 08:45:07 PM 36.3006 -86.1750 68° East 453 521 45,000  Level Memphis Center
Sun 08:47:03 PM 36.3881 -85.9036 68° East 463 533 45,000  Level Indianapolis Center
Sun 08:48:05 PM 36.4369 -85.7514 68° East 465 535 45,000  Level Indianapolis Center
Sun 08:49:06 PM 36.4833 -85.6028 69° East 462 532 45,000  Level Indianapolis Center
Sun 08:50:07 PM 36.5306 -85.4558 68° East 457 526 45,000  Level Indianapolis Center
Sun 08:51:09 PM 36.5772 -85.3028 69° East 465 535 45,000  Level Indianapolis Center
Sun 08:52:10 PM 36.6239 -85.1528 69° East 465 535 45,000  Level Indianapolis Center
Sun 08:53:11 PM 36.6708 -85.0017 69° East 466 536 45,000  Level Indianapolis Center
Sun 08:54:13 PM 36.7156 -84.8503 70° East 461 531 45,000  Level Indianapolis Center
Sun 08:55:14 PM 36.7697 -84.6711 69° East 458 527 45,000  Level Indianapolis Center
Sun 08:56:16 PM 36.8161 -84.5231 69° East 455 524 45,000  Level Indianapolis Center
Sun 08:57:17 PM 36.8575 -84.3803 70° East 458 527 45,000  Level Indianapolis Center
Sun 08:58:18 PM 36.9039 -84.2308 69° East 460 529 45,000  Level Indianapolis Center
Sun 08:59:20 PM 36.9483 -84.0819 69° East 459 528 45,000  Level Indianapolis Center
Sun 09:00:21 PM 36.9919 -83.9300 70° East 459 528 45,000  Level Indianapolis Center
Sun 09:01:22 PM 37.0389 -83.7800 69° East 461 531 45,000  Level Indianapolis Center
Sun 09:02:24 PM 37.0908 -83.6006 70° East 466 536 45,000  Level Indianapolis Center
Sun 09:03:25 PM 37.1353 -83.4469 70° East 466 536 45,000  Level Indianapolis Center
Sun 09:04:26 PM 37.1808 -83.2936 70° East 465 535 45,000  Level Indianapolis Center
Sun 09:05:27 PM 37.2250 -83.1389 70° East 468 539 45,000  Level Indianapolis Center
Sun 09:06:29 PM 37.2697 -82.9836 70° East 467 537 45,000  Level Indianapolis Center
Sun 09:07:30 PM 37.3136 -82.8286 70° East 467 537 45,000  Level Indianapolis Center
Sun 09:08:31 PM 37.3567 -82.6753 71° East 463 533 45,000  Level Indianapolis Center
Sun 09:09:33 PM 37.3992 -82.5228 71° East 461 531 45,000  Level Indianapolis Center
Sun 09:10:34 PM 37.4428 -82.3700 70° East 461 531 45,000  Level Indianapolis Center
Sun 09:11:35 PM 37.4856 -82.2172 71° East 461 531 45,000  Level Indianapolis Center
Sun 09:12:36 PM 37.5275 -82.0636 71° East 462 532 45,000  Level Indianapolis Center
Sun 09:13:38 PM 37.5700 -81.9094 71° East 463 533 45,000  Level Indianapolis Center
Sun 09:14:39 PM 37.6108 -81.7544 72° East 465 535 45,000  Level Indianapolis Center
Sun 09:15:40 PM 37.6603 -81.5753 71° East 463 533 45,000  Level Indianapolis Center
Sun 09:16:41 PM 37.7028 -81.4189 71° East 465 535 45,000  Level Indianapolis Center
Sun 09:17:43 PM 37.7436 -81.2689 71° East 464 534 45,000  Level Indianapolis Center
Sun 09:18:44 PM 37.7811 -81.1164 73° East 469 540 45,000  Level Indianapolis Center
Sun 09:19:45 PM 37.7917 -80.9583 85° East 467 537 45,000  Level Indianapolis Center
Sun 09:20:46 PM 37.8042 -80.7686 85° East 464 534 45,000  Level Indianapolis Center
Sun 09:21:47 PM 37.8139 -80.6114 85° East 469 540 45,000  Level Indianapolis Center
Sun 09:22:28 PM 37.8194 -80.5236 85° East 459 528 45,000  Level Washington Center
Sun 09:23:26 PM 37.8325 -80.3589 84° East 459 528 45,000  Level Washington Center
Sun 09:24:26 PM 37.8408 -80.1964 86° East 459 528 45,000  Level Washington Center
Sun 09:25:27 PM 37.8533 -80.0339 84° East 459 528 45,000  Level Washington Center
Sun 09:26:27 PM 37.8639 -79.8558 86° East 459 528 45,000  Level Washington Center
Sun 09:27:28 PM 37.8758 -79.6933 85° East 459 528 45,000  Level Washington Center
Sun 09:28:26 PM 37.8833 -79.5306 87° East 459 528 45,000  Level Washington Center
Sun 09:29:26 PM 37.8928 -79.3653 86° East 459 528 45,000  Level Washington Center
Sun 09:30:27 PM 37.9019 -79.2025 86° East 459 528 45,000  Level Washington Center
Sun 09:31:27 PM 37.9128 -79.0531 85° East 459 528 45,000  Level Washington Center
Sun 09:32:26 PM 37.9319 -78.8881 82° East 459 528 45,000  Level Washington Center
Sun 09:33:26 PM 37.9511 -78.7228 82° East 464 534 45,000  Level Washington Center
Sun 09:34:27 PM 37.9697 -78.5578 82° East 464 534 45,000  Level Washington Center
Sun 09:35:29 PM 37.9931 -78.3742 81° East 469 540 45,000  Level Washington Center
Sun 09:36:26 PM 38.0133 -78.2117 81° East 469 540 45,000  Level Washington Center
Sun 09:37:27 PM 38.0517 -78.0731 71° East 464 534 45,000  Level Washington Center
Sun 09:38:26 PM 38.1256 -77.9303 57° Northeast 466 536 45,000  Level Washington Center
Sun 09:39:26 PM 38.1950 -77.7872 58° Northeast 466 536 45,000  Level Washington Center
Sun 09:40:27 PM 38.2661 -77.6439 58° Northeast 477 549 45,000  Level Washington Center
Sun 09:41:28 PM 38.3394 -77.4950 58° Northeast 483 556 45,000  Level Washington Center
Sun 09:42:26 PM 38.4083 -77.3536 58° Northeast 483 556 45,000 -600 Level Washington Center
Sun 09:43:28 PM 38.4750 -77.2175 58° Northeast 471 542 43,800 -1,900 Descending Washington Center
Sun 09:44:26 PM 38.5414 -77.0833 58° Northeast 457 526 41,200 -2,797 Descending Washington Center
Sun 09:45:26 PM 38.6183 -76.9203 59° Northeast 464 534 38,300 -2,750 Descending Washington Center
Sun 09:46:26 PM 38.6908 -76.7753 57° Northeast 469 540 35,700 -2,628 Descending Washington Center
Sun 09:47:27 PM 38.7878 -76.6489 45° Northeast 479 551 33,000 -2,607 Descending Washington Center
Sun 09:48:28 PM 38.8889 -76.5303 42° Northeast 485 558 30,400 -2,579 Descending Washington Center
Sun 09:49:28 PM 38.9919 -76.4142 41° Northeast 485 558 27,800 -2,571 Descending Washington Center
Sun 09:50:27 PM 39.0864 -76.3003 43° Northeast 472 543 25,300 -1,900 Descending Washington Center
Sun 09:51:28 PM 39.1808 -76.1942 41° Northeast 460 529 24,000 -645 Descending Washington Center
Sun 09:52:28 PM 39.2667 -76.0983 41° Northeast 460 529 24,000 -1,173 Level Washington Center
Sun 09:54:27 PM 39.4667 -75.9000 37° Northeast 419 482 20,500 -1,873 Descending Philadelphia TRACON
Sun 09:55:21 PM 39.5500 -75.8333 32° Northeast 398 458 18,600 -2,053 Descending Philadelphia TRACON
Sun 09:56:21 PM 39.6333 -75.7500 38° Northeast 381 438 16,600 -2,000 Descending Philadelphia TRACON
Sun 09:57:21 PM 39.7167 -75.6667 38° Northeast 366 421 14,600 -1,750 Descending Philadelphia TRACON
Sun 09:58:21 PM 39.8000 -75.6000 32° Northeast 349 402 13,100 -762 Descending Philadelphia TRACON
Sun 09:59:27 PM 39.8833 -75.5167 37° Northeast 376 433 13,000 -48 Descending Philadelphia TRACON
Sun 10:00:27 PM 39.9833 -75.4333 33° Northeast 382 440 13,000  Level Philadelphia TRACON
Sun 10:01:27 PM 40.0667 -75.3500 37° Northeast 366 421 13,000  Level Philadelphia TRACON
Sun 10:02:27 PM 40.1500 -75.2833 31° Northeast 360 414 13,000 -961 Level Philadelphia TRACON
Sun 10:04:53 PM 40.3000 -75.1167 40° Northeast 295 339 9,700 -1,427 Descending New York TRACON
Sun 10:05:53 PM 40.3667 -75.0500 37° Northeast 289 333 8,100 -1,650 Descending New York TRACON
Sun 10:06:53 PM 40.4167 -74.9833 45° Northeast 279 321 6,400 -1,750 Descending New York TRACON
Sun 10:07:53 PM 40.4667 -74.9000 52° Northeast 278 320 4,600 -1,095 Descending New York TRACON
Sun 10:08:59 PM 40.5333 -74.8167 44° Northeast 276 318 4,100 -250 Descending New York TRACON
Sun 10:09:53 PM 40.5833 -74.7500 45° Northeast 271 312 4,100  Level New York TRACON
Sun 10:10:59 PM 40.6333 -74.6667 52° Northeast 270 311 4,100 -48 Level New York TRACON
Sun 10:11:59 PM 40.6833 -74.6000 45° Northeast 274 315 4,000 -450 Descending New York TRACON
Sun 10:12:59 PM 40.7333 -74.5167 52° Northeast 270 311 3,200 -450 Descending New York TRACON
Sun 10:13:59 PM 40.7833 -74.4500 45° Northeast 269 310 3,100 -50 Descending New York TRACON
Sun 10:14:59 PM 40.8333 -74.3833 45° Northeast 273 314 3,100  Level New York TRACON
Sun 10:15:59 PM 40.8833 -74.3000 52° Northeast 275 316 3,100 -100 Level New York TRACON
Sun 10:16:59 PM 40.9333 -74.2333 45° Northeast 276 318 2,900 -500 Descending New York TRACON
Sun 10:17:59 PM 40.9667 -74.1500 62° Northeast 252 290 2,100 -421 Descending New York TRACON
Sun 10:18:53 PM 40.9833 -74.0833 72° East 201 231 2,100  Level New York TRACON
Sun 10:19:53 PM 40.9667 -74.0500 124° Southeast 152 175 2,100 -300 Level New York TRACON
Sun 10:20:53 PM 40.9333 -74.0500 180° South 125 144 1,500 -600 Descending New York TRACON

Login

Don't have an account? Register now (free) for customized features, flight alerts, and more!